sensor_id;sensor_type;location;lat;lon;timestamp;P1;durP1;ratioP1;P2;durP2;ratioP2
14619;SDS011;32125;48.518;9.050;2022-09-28T00:01:06;2.00;;;1.90;;
14619;SDS011;32125;48.518;9.050;2022-09-28T00:03:33;2.00;;;1.80;;
14619;SDS011;32125;48.518;9.050;2022-09-28T00:05:59;3.57;;;1.53;;
14619;SDS011;32125;48.518;9.050;2022-09-28T00:08:26;2.80;;;1.47;;
14619;SDS011;32125;48.518;9.050;2022-09-28T00:11:01;1.87;;;1.50;;
14619;SDS011;32125;48.518;9.050;2022-09-28T00:13:29;2.07;;;1.30;;
14619;SDS011;32125;48.518;9.050;2022-09-28T00:18:25;1.57;;;1.13;;
14619;SDS011;32125;48.518;9.050;2022-09-28T00:21:05;1.87;;;1.13;;
14619;SDS011;32125;48.518;9.050;2022-09-28T00:23:36;2.87;;;1.20;;
14619;SDS011;32125;48.518;9.050;2022-09-28T00:26:24;3.17;;;1.00;;
14619;SDS011;32125;48.518;9.050;2022-09-28T00:28:54;2.83;;;1.00;;
14619;SDS011;32125;48.518;9.050;2022-09-28T00:31:26;2.50;;;1.10;;
14619;SDS011;32125;48.518;9.050;2022-09-28T00:33:54;2.93;;;1.20;;
14619;SDS011;32125;48.518;9.050;2022-09-28T00:36:24;2.07;;;1.17;;
14619;SDS011;32125;48.518;9.050;2022-09-28T00:38:52;3.53;;;1.30;;
14619;SDS011;32125;48.518;9.050;2022-09-28T00:41:18;3.87;;;1.20;;
14619;SDS011;32125;48.518;9.050;2022-09-28T00:43:44;6.07;;;1.60;;
14619;SDS011;32125;48.518;9.050;2022-09-28T00:46:30;3.67;;;1.20;;
14619;SDS011;32125;48.518;9.050;2022-09-28T00:48:57;2.93;;;1.10;;
14619;SDS011;32125;48.518;9.050;2022-09-28T00:51:32;2.70;;;1.20;;
14619;SDS011;32125;48.518;9.050;2022-09-28T00:54:01;1.77;;;1.10;;
14619;SDS011;32125;48.518;9.050;2022-09-28T00:56:30;3.67;;;1.20;;
14619;SDS011;32125;48.518;9.050;2022-09-28T00:59:02;6.20;;;1.50;;
14619;SDS011;32125;48.518;9.050;2022-09-28T01:01:28;3.37;;;1.27;;
14619;SDS011;32125;48.518;9.050;2022-09-28T01:03:56;5.53;;;1.30;;
14619;SDS011;32125;48.518;9.050;2022-09-28T01:06:27;4.20;;;1.20;;
14619;SDS011;32125;48.518;9.050;2022-09-28T01:08:57;2.13;;;1.20;;
14619;SDS011;32125;48.518;9.050;2022-09-28T01:11:26;3.47;;;1.20;;
14619;SDS011;32125;48.518;9.050;2022-09-28T01:13:57;4.20;;;1.43;;
14619;SDS011;32125;48.518;9.050;2022-09-28T01:21:53;4.83;;;1.57;;
14619;SDS011;32125;48.518;9.050;2022-09-28T01:27:05;3.43;;;1.30;;
14619;SDS011;32125;48.518;9.050;2022-09-28T01:29:42;3.43;;;1.23;;
14619;SDS011;32125;48.518;9.050;2022-09-28T01:37:27;3.33;;;1.20;;
14619;SDS011;32125;48.518;9.050;2022-09-28T01:40:08;1.83;;;1.20;;
14619;SDS011;32125;48.518;9.050;2022-09-28T01:42:35;3.00;;;1.20;;
14619;SDS011;32125;48.518;9.050;2022-09-28T01:45:04;2.83;;;1.23;;
14619;SDS011;32125;48.518;9.050;2022-09-28T01:47:35;4.30;;;1.10;;
14619;SDS011;32125;48.518;9.050;2022-09-28T01:50:08;2.20;;;1.10;;
14619;SDS011;32125;48.518;9.050;2022-09-28T01:52:42;3.00;;;1.37;;
14619;SDS011;32125;48.518;9.050;2022-09-28T01:55:22;2.97;;;1.20;;
14619;SDS011;32125;48.518;9.050;2022-09-28T01:58:04;5.33;;;1.50;;
14619;SDS011;32125;48.518;9.050;2022-09-28T02:00:50;3.13;;;1.17;;
14619;SDS011;32125;48.518;9.050;2022-09-28T02:03:28;4.97;;;1.57;;
14619;SDS011;32125;48.518;9.050;2022-09-28T02:06:02;5.13;;;1.70;;
14619;SDS011;32125;48.518;9.050;2022-09-28T02:18:32;3.53;;;1.40;;
14619;SDS011;32125;48.518;9.050;2022-09-28T02:20:59;6.57;;;1.70;;
14619;SDS011;32125;48.518;9.050;2022-09-28T02:23:34;5.90;;;1.53;;
14619;SDS011;32125;48.518;9.050;2022-09-28T02:26:02;4.77;;;1.30;;
14619;SDS011;32125;48.518;9.050;2022-09-28T02:28:34;3.00;;;1.50;;
14619;SDS011;32125;48.518;9.050;2022-09-28T02:31:00;5.33;;;1.43;;
14619;SDS011;32125;48.518;9.050;2022-09-28T02:33:30;7.43;;;1.77;;
14619;SDS011;32125;48.518;9.050;2022-09-28T02:36:02;3.33;;;1.30;;
14619;SDS011;32125;48.518;9.050;2022-09-28T02:38:29;5.30;;;1.33;;
14619;SDS011;32125;48.518;9.050;2022-09-28T02:41:08;3.13;;;1.40;;
14619;SDS011;32125;48.518;9.050;2022-09-28T02:46:16;5.10;;;1.60;;
14619;SDS011;32125;48.518;9.050;2022-09-28T02:51:36;4.13;;;1.40;;
14619;SDS011;32125;48.518;9.050;2022-09-28T03:02:06;3.00;;;1.53;;
14619;SDS011;32125;48.518;9.050;2022-09-28T03:05:01;4.50;;;1.67;;
14619;SDS011;32125;48.518;9.050;2022-09-28T03:07:36;4.23;;;1.70;;
14619;SDS011;32125;48.518;9.050;2022-09-28T03:10:23;3.13;;;1.60;;
14619;SDS011;32125;48.518;9.050;2022-09-28T03:12:52;4.27;;;1.50;;
14619;SDS011;32125;48.518;9.050;2022-09-28T03:15:24;4.97;;;1.90;;
14619;SDS011;32125;48.518;9.050;2022-09-28T03:17:52;3.43;;;1.80;;
14619;SDS011;32125;48.518;9.050;2022-09-28T03:20:18;2.70;;;1.50;;
14619;SDS011;32125;48.518;9.050;2022-09-28T03:22:44;3.10;;;1.37;;
14619;SDS011;32125;48.518;9.050;2022-09-28T03:25:10;4.30;;;1.43;;
14619;SDS011;32125;48.518;9.050;2022-09-28T03:27:37;3.60;;;1.07;;
14619;SDS011;32125;48.518;9.050;2022-09-28T03:30:05;4.57;;;1.37;;
14619;SDS011;32125;48.518;9.050;2022-09-28T03:32:31;3.30;;;1.40;;
14619;SDS011;32125;48.518;9.050;2022-09-28T03:35:00;3.53;;;1.33;;
14619;SDS011;32125;48.518;9.050;2022-09-28T03:37:28;3.20;;;1.20;;
14619;SDS011;32125;48.518;9.050;2022-09-28T03:39:55;2.17;;;1.00;;
14619;SDS011;32125;48.518;9.050;2022-09-28T03:42:21;1.87;;;1.07;;
14619;SDS011;32125;48.518;9.050;2022-09-28T03:44:47;6.37;;;1.70;;
14619;SDS011;32125;48.518;9.050;2022-09-28T03:47:13;2.87;;;1.30;;
14619;SDS011;32125;48.518;9.050;2022-09-28T03:49:40;3.47;;;1.60;;
14619;SDS011;32125;48.518;9.050;2022-09-28T03:52:06;3.43;;;1.53;;
14619;SDS011;32125;48.518;9.050;2022-09-28T03:54:32;3.60;;;1.10;;
14619;SDS011;32125;48.518;9.050;2022-09-28T03:56:58;4.97;;;1.50;;
14619;SDS011;32125;48.518;9.050;2022-09-28T03:59:26;5.77;;;1.53;;
14619;SDS011;32125;48.518;9.050;2022-09-28T04:01:52;4.20;;;1.77;;
14619;SDS011;32125;48.518;9.050;2022-09-28T04:04:19;3.37;;;1.70;;
14619;SDS011;32125;48.518;9.050;2022-09-28T04:06:45;2.87;;;1.97;;
14619;SDS011;32125;48.518;9.050;2022-09-28T04:09:11;5.53;;;1.90;;
14619;SDS011;32125;48.518;9.050;2022-09-28T04:11:37;6.53;;;2.00;;
14619;SDS011;32125;48.518;9.050;2022-09-28T04:14:03;1.90;;;1.60;;
14619;SDS011;32125;48.518;9.050;2022-09-28T04:16:29;4.43;;;2.07;;
14619;SDS011;32125;48.518;9.050;2022-09-28T04:18:57;3.27;;;2.27;;
14619;SDS011;32125;48.518;9.050;2022-09-28T04:21:23;3.10;;;1.60;;
14619;SDS011;32125;48.518;9.050;2022-09-28T04:23:49;3.03;;;1.83;;
14619;SDS011;32125;48.518;9.050;2022-09-28T04:26:17;2.17;;;1.40;;
14619;SDS011;32125;48.518;9.050;2022-09-28T04:28:44;2.63;;;1.30;;
14619;SDS011;32125;48.518;9.050;2022-09-28T04:31:28;2.13;;;1.43;;
14619;SDS011;32125;48.518;9.050;2022-09-28T04:33:55;2.40;;;1.30;;
14619;SDS011;32125;48.518;9.050;2022-09-28T04:36:21;3.27;;;1.53;;
14619;SDS011;32125;48.518;9.050;2022-09-28T04:38:49;3.03;;;1.43;;
14619;SDS011;32125;48.518;9.050;2022-09-28T04:41:16;1.47;;;1.37;;
14619;SDS011;32125;48.518;9.050;2022-09-28T04:43:42;2.30;;;1.17;;
14619;SDS011;32125;48.518;9.050;2022-09-28T04:46:10;1.90;;;1.20;;
14619;SDS011;32125;48.518;9.050;2022-09-28T04:48:36;1.77;;;1.20;;
14619;SDS011;32125;48.518;9.050;2022-09-28T04:51:02;2.30;;;1.43;;
14619;SDS011;32125;48.518;9.050;2022-09-28T04:53:28;3.23;;;1.50;;
14619;SDS011;32125;48.518;9.050;2022-09-28T04:55:58;3.53;;;1.60;;
14619;SDS011;32125;48.518;9.050;2022-09-28T04:58:26;4.63;;;1.80;;
14619;SDS011;32125;48.518;9.050;2022-09-28T05:00:52;1.93;;;1.53;;
14619;SDS011;32125;48.518;9.050;2022-09-28T05:03:25;3.47;;;1.60;;
14619;SDS011;32125;48.518;9.050;2022-09-28T05:05:51;2.47;;;1.50;;
14619;SDS011;32125;48.518;9.050;2022-09-28T05:08:19;2.80;;;1.50;;
14619;SDS011;32125;48.518;9.050;2022-09-28T05:10:45;2.37;;;1.60;;
14619;SDS011;32125;48.518;9.050;2022-09-28T05:13:12;1.40;;;1.17;;
14619;SDS011;32125;48.518;9.050;2022-09-28T05:15:39;2.53;;;0.87;;
14619;SDS011;32125;48.518;9.050;2022-09-28T05:18:08;1.57;;;1.07;;
14619;SDS011;32125;48.518;9.050;2022-09-28T05:20:38;1.87;;;1.00;;
14619;SDS011;32125;48.518;9.050;2022-09-28T05:23:05;2.10;;;1.40;;
14619;SDS011;32125;48.518;9.050;2022-09-28T05:25:33;1.87;;;1.20;;
14619;SDS011;32125;48.518;9.050;2022-09-28T05:28:02;1.23;;;1.13;;
14619;SDS011;32125;48.518;9.050;2022-09-28T05:30:28;3.87;;;1.47;;
14619;SDS011;32125;48.518;9.050;2022-09-28T05:36:17;2.30;;;1.67;;
14619;SDS011;32125;48.518;9.050;2022-09-28T05:38:43;3.13;;;1.33;;
14619;SDS011;32125;48.518;9.050;2022-09-28T05:41:09;1.43;;;1.10;;
14619;SDS011;32125;48.518;9.050;2022-09-28T05:43:36;1.30;;;1.23;;
14619;SDS011;32125;48.518;9.050;2022-09-28T05:46:02;1.83;;;1.30;;
14619;SDS011;32125;48.518;9.050;2022-09-28T05:48:28;1.20;;;1.10;;
14619;SDS011;32125;48.518;9.050;2022-09-28T05:50:55;2.20;;;1.10;;
14619;SDS011;32125;48.518;9.050;2022-09-28T05:53:22;2.33;;;1.20;;
14619;SDS011;32125;48.518;9.050;2022-09-28T05:55:49;2.23;;;1.20;;
14619;SDS011;32125;48.518;9.050;2022-09-28T05:58:15;3.70;;;1.50;;
14619;SDS011;32125;48.518;9.050;2022-09-28T06:00:43;3.20;;;1.33;;
14619;SDS011;32125;48.518;9.050;2022-09-28T06:03:10;1.53;;;1.07;;
14619;SDS011;32125;48.518;9.050;2022-09-28T06:05:37;4.20;;;1.33;;
14619;SDS011;32125;48.518;9.050;2022-09-28T06:08:04;0.90;;;0.90;;
14619;SDS011;32125;48.518;9.050;2022-09-28T06:10:32;1.50;;;1.40;;
14619;SDS011;32125;48.518;9.050;2022-09-28T06:12:58;1.67;;;1.20;;
14619;SDS011;32125;48.518;9.050;2022-09-28T06:15:25;2.33;;;1.47;;
14619;SDS011;32125;48.518;9.050;2022-09-28T06:17:55;2.67;;;1.60;;
14619;SDS011;32125;48.518;9.050;2022-09-28T06:20:22;2.23;;;1.77;;
14619;SDS011;32125;48.518;9.050;2022-09-28T06:22:53;2.80;;;1.90;;
14619;SDS011;32125;48.518;9.050;2022-09-28T06:25:20;4.27;;;2.10;;
14619;SDS011;32125;48.518;9.050;2022-09-28T06:28:19;2.27;;;1.90;;
14619;SDS011;32125;48.518;9.050;2022-09-28T06:30:39;3.67;;;1.40;;
14619;SDS011;32125;48.518;9.050;2022-09-28T06:33:09;3.13;;;1.30;;
14619;SDS011;32125;48.518;9.050;2022-09-28T06:35:36;2.37;;;1.23;;
14619;SDS011;32125;48.518;9.050;2022-09-28T06:38:02;1.83;;;1.17;;
14619;SDS011;32125;48.518;9.050;2022-09-28T06:40:29;2.20;;;1.00;;
14619;SDS011;32125;48.518;9.050;2022-09-28T06:42:58;0.80;;;0.80;;
14619;SDS011;32125;48.518;9.050;2022-09-28T06:45:33;1.53;;;0.80;;
14619;SDS011;32125;48.518;9.050;2022-09-28T06:48:00;1.37;;;0.90;;
14619;SDS011;32125;48.518;9.050;2022-09-28T06:50:27;1.23;;;0.83;;
14619;SDS011;32125;48.518;9.050;2022-09-28T06:52:56;0.87;;;0.80;;
14619;SDS011;32125;48.518;9.050;2022-09-28T06:55:23;0.73;;;0.73;;
14619;SDS011;32125;48.518;9.050;2022-09-28T06:58:02;1.03;;;0.93;;
14619;SDS011;32125;48.518;9.050;2022-09-28T07:00:30;2.07;;;1.00;;
14619;SDS011;32125;48.518;9.050;2022-09-28T07:02:58;2.10;;;0.90;;
14619;SDS011;32125;48.518;9.050;2022-09-28T07:05:25;2.30;;;0.80;;
14619;SDS011;32125;48.518;9.050;2022-09-28T07:07:55;0.90;;;0.80;;
14619;SDS011;32125;48.518;9.050;2022-09-28T07:10:25;0.83;;;0.83;;
14619;SDS011;32125;48.518;9.050;2022-09-28T07:12:52;2.10;;;0.70;;
14619;SDS011;32125;48.518;9.050;2022-09-28T07:15:25;0.80;;;0.63;;
14619;SDS011;32125;48.518;9.050;2022-09-28T07:17:58;0.63;;;0.50;;
14619;SDS011;32125;48.518;9.050;2022-09-28T07:20:24;2.73;;;0.80;;
14619;SDS011;32125;48.518;9.050;2022-09-28T07:22:53;1.20;;;0.60;;
14619;SDS011;32125;48.518;9.050;2022-09-28T07:25:21;1.50;;;0.50;;
14619;SDS011;32125;48.518;9.050;2022-09-28T07:27:47;0.83;;;0.50;;
14619;SDS011;32125;48.518;9.050;2022-09-28T07:30:13;0.87;;;0.60;;
14619;SDS011;32125;48.518;9.050;2022-09-28T07:32:39;2.50;;;0.40;;
14619;SDS011;32125;48.518;9.050;2022-09-28T07:35:08;2.50;;;0.60;;
14619;SDS011;32125;48.518;9.050;2022-09-28T07:37:34;1.20;;;0.60;;
14619;SDS011;32125;48.518;9.050;2022-09-28T07:40:03;0.40;;;0.40;;
14619;SDS011;32125;48.518;9.050;2022-09-28T07:42:49;1.17;;;0.50;;
14619;SDS011;32125;48.518;9.050;2022-09-28T07:45:15;1.17;;;0.50;;
14619;SDS011;32125;48.518;9.050;2022-09-28T07:47:41;1.20;;;0.60;;
14619;SDS011;32125;48.518;9.050;2022-09-28T07:50:07;0.73;;;0.70;;
14619;SDS011;32125;48.518;9.050;2022-09-28T07:52:33;1.30;;;0.70;;
14619;SDS011;32125;48.518;9.050;2022-09-28T07:55:02;0.60;;;0.60;;
14619;SDS011;32125;48.518;9.050;2022-09-28T07:57:30;0.60;;;0.60;;
14619;SDS011;32125;48.518;9.050;2022-09-28T07:59:59;0.70;;;0.70;;
14619;SDS011;32125;48.518;9.050;2022-09-28T08:02:26;0.60;;;0.60;;
14619;SDS011;32125;48.518;9.050;2022-09-28T08:04:52;0.60;;;0.60;;
14619;SDS011;32125;48.518;9.050;2022-09-28T08:07:18;1.27;;;0.60;;
14619;SDS011;32125;48.518;9.050;2022-09-28T08:09:46;0.70;;;0.70;;
14619;SDS011;32125;48.518;9.050;2022-09-28T08:12:12;1.50;;;1.00;;
14619;SDS011;32125;48.518;9.050;2022-09-28T08:14:38;1.50;;;0.90;;
14619;SDS011;32125;48.518;9.050;2022-09-28T08:17:05;0.57;;;0.57;;
14619;SDS011;32125;48.518;9.050;2022-09-28T08:19:31;1.07;;;0.70;;
14619;SDS011;32125;48.518;9.050;2022-09-28T08:22:17;0.60;;;0.60;;
14619;SDS011;32125;48.518;9.050;2022-09-28T08:24:44;0.90;;;0.70;;
14619;SDS011;32125;48.518;9.050;2022-09-28T08:27:10;1.53;;;0.90;;
14619;SDS011;32125;48.518;9.050;2022-09-28T08:29:37;0.93;;;0.90;;
14619;SDS011;32125;48.518;9.050;2022-09-28T08:32:03;3.13;;;0.93;;
14619;SDS011;32125;48.518;9.050;2022-09-28T08:34:35;1.00;;;1.00;;
14619;SDS011;32125;48.518;9.050;2022-09-28T08:37:03;2.20;;;0.90;;
14619;SDS011;32125;48.518;9.050;2022-09-28T08:39:35;1.57;;;0.80;;
14619;SDS011;32125;48.518;9.050;2022-09-28T08:44:53;0.80;;;0.80;;
14619;SDS011;32125;48.518;9.050;2022-09-28T08:47:33;1.57;;;0.63;;
14619;SDS011;32125;48.518;9.050;2022-09-28T08:50:21;2.00;;;0.83;;
14619;SDS011;32125;48.518;9.050;2022-09-28T08:52:52;2.10;;;0.90;;
14619;SDS011;32125;48.518;9.050;2022-09-28T08:55:36;1.37;;;0.90;;
14619;SDS011;32125;48.518;9.050;2022-09-28T08:58:13;1.27;;;0.90;;
14619;SDS011;32125;48.518;9.050;2022-09-28T09:00:52;1.07;;;0.90;;
14619;SDS011;32125;48.518;9.050;2022-09-28T09:03:20;1.87;;;0.90;;
14619;SDS011;32125;48.518;9.050;2022-09-28T09:08:25;4.80;;;1.90;;
14619;SDS011;32125;48.518;9.050;2022-09-28T09:11:12;1.30;;;1.20;;
14619;SDS011;32125;48.518;9.050;2022-09-28T09:16:16;3.20;;;1.43;;
14619;SDS011;32125;48.518;9.050;2022-09-28T09:21:48;2.17;;;1.40;;
14619;SDS011;32125;48.518;9.050;2022-09-28T09:48:59;3.07;;;1.20;;
14619;SDS011;32125;48.518;9.050;2022-09-28T09:54:25;2.13;;;1.40;;
14619;SDS011;32125;48.518;9.050;2022-09-28T09:57:20;2.83;;;1.30;;
14619;SDS011;32125;48.518;9.050;2022-09-28T09:59:53;2.87;;;1.27;;
14619;SDS011;32125;48.518;9.050;2022-09-28T10:02:26;2.40;;;1.50;;
14619;SDS011;32125;48.518;9.050;2022-09-28T10:05:36;4.53;;;1.40;;
14619;SDS011;32125;48.518;9.050;2022-09-28T10:10:24;0.97;;;0.97;;
14619;SDS011;32125;48.518;9.050;2022-09-28T10:12:58;2.97;;;1.17;;
14619;SDS011;32125;48.518;9.050;2022-09-28T10:15:25;3.77;;;1.10;;
14619;SDS011;32125;48.518;9.050;2022-09-28T10:17:56;2.77;;;1.40;;
14619;SDS011;32125;48.518;9.050;2022-09-28T10:20:26;2.63;;;1.30;;
14619;SDS011;32125;48.518;9.050;2022-09-28T10:22:55;2.37;;;1.03;;
14619;SDS011;32125;48.518;9.050;2022-09-28T10:25:26;1.30;;;1.20;;
14619;SDS011;32125;48.518;9.050;2022-09-28T10:27:53;3.80;;;1.30;;
14619;SDS011;32125;48.518;9.050;2022-09-28T10:30:22;1.90;;;1.10;;
14619;SDS011;32125;48.518;9.050;2022-09-28T10:32:50;3.40;;;1.03;;
14619;SDS011;32125;48.518;9.050;2022-09-28T10:37:47;3.47;;;1.17;;
14619;SDS011;32125;48.518;9.050;2022-09-28T10:40:26;1.90;;;1.13;;
14619;SDS011;32125;48.518;9.050;2022-09-28T10:43:02;3.17;;;1.37;;
14619;SDS011;32125;48.518;9.050;2022-09-28T10:45:33;1.77;;;0.97;;
14619;SDS011;32125;48.518;9.050;2022-09-28T10:48:03;1.77;;;0.90;;
14619;SDS011;32125;48.518;9.050;2022-09-28T10:50:32;1.57;;;1.10;;
14619;SDS011;32125;48.518;9.050;2022-09-28T10:53:09;2.73;;;0.90;;
14619;SDS011;32125;48.518;9.050;2022-09-28T10:55:37;2.63;;;0.93;;
14619;SDS011;32125;48.518;9.050;2022-09-28T10:58:17;2.00;;;1.00;;
14619;SDS011;32125;48.518;9.050;2022-09-28T11:00:50;2.47;;;0.90;;
14619;SDS011;32125;48.518;9.050;2022-09-28T11:03:23;3.00;;;1.10;;
14619;SDS011;32125;48.518;9.050;2022-09-28T11:06:02;2.40;;;1.20;;
14619;SDS011;32125;48.518;9.050;2022-09-28T11:08:39;4.83;;;0.90;;
14619;SDS011;32125;48.518;9.050;2022-09-28T11:11:08;3.23;;;1.13;;
14619;SDS011;32125;48.518;9.050;2022-09-28T11:13:55;1.87;;;0.90;;
14619;SDS011;32125;48.518;9.050;2022-09-28T11:16:34;1.90;;;0.97;;
14619;SDS011;32125;48.518;9.050;2022-09-28T11:21:56;2.87;;;1.20;;
14619;SDS011;32125;48.518;9.050;2022-09-28T11:24:22;1.03;;;0.90;;
14619;SDS011;32125;48.518;9.050;2022-09-28T11:26:51;2.90;;;0.97;;
14619;SDS011;32125;48.518;9.050;2022-09-28T11:31:51;4.23;;;1.20;;
14619;SDS011;32125;48.518;9.050;2022-09-28T11:34:21;2.13;;;1.00;;
14619;SDS011;32125;48.518;9.050;2022-09-28T11:44:37;4.07;;;1.53;;
14619;SDS011;32125;48.518;9.050;2022-09-28T11:49:42;2.37;;;1.20;;
14619;SDS011;32125;48.518;9.050;2022-09-28T11:54:55;2.40;;;1.10;;
14619;SDS011;32125;48.518;9.050;2022-09-28T11:57:27;1.50;;;1.07;;
14619;SDS011;32125;48.518;9.050;2022-09-28T12:00:03;1.77;;;1.20;;
14619;SDS011;32125;48.518;9.050;2022-09-28T12:07:37;3.30;;;1.10;;
14619;SDS011;32125;48.518;9.050;2022-09-28T12:12:47;2.33;;;1.00;;
14619;SDS011;32125;48.518;9.050;2022-09-28T12:17:55;1.37;;;0.90;;
14619;SDS011;32125;48.518;9.050;2022-09-28T12:20:32;1.37;;;1.10;;
14619;SDS011;32125;48.518;9.050;2022-09-28T12:25:32;3.83;;;1.30;;
14619;SDS011;32125;48.518;9.050;2022-09-28T12:28:09;1.83;;;0.90;;
14619;SDS011;32125;48.518;9.050;2022-09-28T12:30:49;2.73;;;1.27;;
14619;SDS011;32125;48.518;9.050;2022-09-28T12:33:21;3.50;;;1.20;;
14619;SDS011;32125;48.518;9.050;2022-09-28T12:49:32;1.40;;;0.70;;
14619;SDS011;32125;48.518;9.050;2022-09-28T13:00:19;3.67;;;1.10;;
14619;SDS011;32125;48.518;9.050;2022-09-28T13:19:26;2.83;;;1.00;;
14619;SDS011;32125;48.518;9.050;2022-09-28T13:21:59;2.67;;;1.10;;
14619;SDS011;32125;48.518;9.050;2022-09-28T13:24:45;3.33;;;1.10;;
14619;SDS011;32125;48.518;9.050;2022-09-28T13:27:12;1.37;;;1.00;;
14619;SDS011;32125;48.518;9.050;2022-09-28T13:29:39;1.40;;;0.77;;
14619;SDS011;32125;48.518;9.050;2022-09-28T13:32:07;2.10;;;1.03;;
14619;SDS011;32125;48.518;9.050;2022-09-28T13:34:36;1.43;;;0.73;;
14619;SDS011;32125;48.518;9.050;2022-09-28T13:50:27;1.10;;;1.00;;
14619;SDS011;32125;48.518;9.050;2022-09-28T13:53:11;0.80;;;0.80;;
14619;SDS011;32125;48.518;9.050;2022-09-28T13:56:04;1.13;;;1.00;;
14619;SDS011;32125;48.518;9.050;2022-09-28T13:58:43;2.57;;;1.00;;
14619;SDS011;32125;48.518;9.050;2022-09-28T14:01:23;1.23;;;0.97;;
14619;SDS011;32125;48.518;9.050;2022-09-28T14:06:43;3.97;;;1.07;;
14619;SDS011;32125;48.518;9.050;2022-09-28T14:14:50;2.00;;;0.80;;
14619;SDS011;32125;48.518;9.050;2022-09-28T14:25:06;2.87;;;1.10;;
14619;SDS011;32125;48.518;9.050;2022-09-28T14:33:21;2.57;;;1.03;;
14619;SDS011;32125;48.518;9.050;2022-09-28T14:35:52;2.77;;;1.10;;
14619;SDS011;32125;48.518;9.050;2022-09-28T14:38:52;2.33;;;0.80;;
14619;SDS011;32125;48.518;9.050;2022-09-28T14:46:34;1.27;;;0.77;;
14619;SDS011;32125;48.518;9.050;2022-09-28T14:56:44;3.00;;;1.20;;
14619;SDS011;32125;48.518;9.050;2022-09-28T14:59:11;2.83;;;1.07;;
14619;SDS011;32125;48.518;9.050;2022-09-28T15:01:42;1.43;;;0.93;;
14619;SDS011;32125;48.518;9.050;2022-09-28T15:04:17;2.53;;;1.10;;
14619;SDS011;32125;48.518;9.050;2022-09-28T15:06:44;3.90;;;1.10;;
14619;SDS011;32125;48.518;9.050;2022-09-28T15:09:27;1.63;;;1.20;;
14619;SDS011;32125;48.518;9.050;2022-09-28T15:12:00;2.77;;;1.17;;
14619;SDS011;32125;48.518;9.050;2022-09-28T15:14:28;3.33;;;1.40;;
14619;SDS011;32125;48.518;9.050;2022-09-28T15:16:59;1.87;;;1.00;;
14619;SDS011;32125;48.518;9.050;2022-09-28T15:19:38;2.60;;;1.17;;
14619;SDS011;32125;48.518;9.050;2022-09-28T15:22:13;2.20;;;1.13;;
14619;SDS011;32125;48.518;9.050;2022-09-28T15:24:52;2.10;;;1.10;;
14619;SDS011;32125;48.518;9.050;2022-09-28T15:27:19;2.13;;;0.97;;
14619;SDS011;32125;48.518;9.050;2022-09-28T15:32:21;3.27;;;1.10;;
14619;SDS011;32125;48.518;9.050;2022-09-28T15:34:48;1.50;;;1.00;;
14619;SDS011;32125;48.518;9.050;2022-09-28T15:37:22;2.77;;;1.20;;
14619;SDS011;32125;48.518;9.050;2022-09-28T15:39:52;4.07;;;1.17;;
14619;SDS011;32125;48.518;9.050;2022-09-28T15:42:21;2.40;;;1.17;;
14619;SDS011;32125;48.518;9.050;2022-09-28T15:45:33;2.93;;;1.40;;
14619;SDS011;32125;48.518;9.050;2022-09-28T15:47:48;2.80;;;1.30;;
14619;SDS011;32125;48.518;9.050;2022-09-28T15:50:20;3.07;;;1.40;;
14619;SDS011;32125;48.518;9.050;2022-09-28T15:55:29;2.40;;;1.60;;
14619;SDS011;32125;48.518;9.050;2022-09-28T15:58:14;3.03;;;1.50;;
14619;SDS011;32125;48.518;9.050;2022-09-28T16:00:42;5.63;;;1.73;;
14619;SDS011;32125;48.518;9.050;2022-09-28T16:05:36;4.33;;;1.53;;
14619;SDS011;32125;48.518;9.050;2022-09-28T16:08:14;2.57;;;1.53;;
14619;SDS011;32125;48.518;9.050;2022-09-28T16:13:58;2.40;;;1.50;;
14619;SDS011;32125;48.518;9.050;2022-09-28T16:16:44;3.33;;;1.70;;
14619;SDS011;32125;48.518;9.050;2022-09-28T16:19:32;6.43;;;1.70;;
14619;SDS011;32125;48.518;9.050;2022-09-28T16:22:01;3.50;;;1.60;;
14619;SDS011;32125;48.518;9.050;2022-09-28T16:24:31;3.37;;;1.57;;
14619;SDS011;32125;48.518;9.050;2022-09-28T16:27:01;4.67;;;1.60;;
14619;SDS011;32125;48.518;9.050;2022-09-28T16:37:38;2.80;;;1.70;;
14619;SDS011;32125;48.518;9.050;2022-09-28T16:40:06;2.63;;;1.57;;
14619;SDS011;32125;48.518;9.050;2022-09-28T16:42:32;3.33;;;1.63;;
14619;SDS011;32125;48.518;9.050;2022-09-28T16:44:58;5.17;;;1.80;;
14619;SDS011;32125;48.518;9.050;2022-09-28T16:47:27;3.07;;;1.67;;
14619;SDS011;32125;48.518;9.050;2022-09-28T16:49:56;2.30;;;1.50;;
14619;SDS011;32125;48.518;9.050;2022-09-28T16:52:22;4.63;;;1.50;;
14619;SDS011;32125;48.518;9.050;2022-09-28T16:55:09;4.00;;;2.30;;
14619;SDS011;32125;48.518;9.050;2022-09-28T16:57:45;5.30;;;2.90;;
14619;SDS011;32125;48.518;9.050;2022-09-28T17:00:21;2.60;;;1.90;;
14619;SDS011;32125;48.518;9.050;2022-09-28T17:02:48;3.37;;;2.00;;
14619;SDS011;32125;48.518;9.050;2022-09-28T17:05:19;2.40;;;1.87;;
14619;SDS011;32125;48.518;9.050;2022-09-28T17:07:45;2.53;;;1.70;;
14619;SDS011;32125;48.518;9.050;2022-09-28T17:12:43;4.60;;;2.00;;
14619;SDS011;32125;48.518;9.050;2022-09-28T17:15:09;3.30;;;1.80;;
14619;SDS011;32125;48.518;9.050;2022-09-28T17:17:44;3.13;;;1.67;;
14619;SDS011;32125;48.518;9.050;2022-09-28T17:20:17;5.03;;;1.77;;
14619;SDS011;32125;48.518;9.050;2022-09-28T17:22:50;2.90;;;1.60;;
14619;SDS011;32125;48.518;9.050;2022-09-28T17:25:16;3.37;;;1.83;;
14619;SDS011;32125;48.518;9.050;2022-09-28T17:27:44;2.77;;;1.70;;
14619;SDS011;32125;48.518;9.050;2022-09-28T17:30:12;4.70;;;1.90;;
14619;SDS011;32125;48.518;9.050;2022-09-28T17:32:38;5.77;;;1.97;;
14619;SDS011;32125;48.518;9.050;2022-09-28T17:35:09;3.30;;;1.97;;
14619;SDS011;32125;48.518;9.050;2022-09-28T17:37:35;5.30;;;1.97;;
14619;SDS011;32125;48.518;9.050;2022-09-28T17:40:02;3.10;;;1.83;;
14619;SDS011;32125;48.518;9.050;2022-09-28T17:42:42;3.73;;;1.87;;
14619;SDS011;32125;48.518;9.050;2022-09-28T17:45:11;3.83;;;1.97;;
14619;SDS011;32125;48.518;9.050;2022-09-28T17:47:39;5.27;;;1.73;;
14619;SDS011;32125;48.518;9.050;2022-09-28T17:50:16;3.63;;;2.07;;
14619;SDS011;32125;48.518;9.050;2022-09-28T17:52:42;2.70;;;1.83;;
14619;SDS011;32125;48.518;9.050;2022-09-28T17:55:08;3.33;;;2.23;;
14619;SDS011;32125;48.518;9.050;2022-09-28T17:57:34;2.90;;;2.00;;
14619;SDS011;32125;48.518;9.050;2022-09-28T18:00:00;5.77;;;2.37;;
14619;SDS011;32125;48.518;9.050;2022-09-28T18:02:26;6.57;;;2.57;;
14619;SDS011;32125;48.518;9.050;2022-09-28T18:04:52;3.20;;;2.40;;
14619;SDS011;32125;48.518;9.050;2022-09-28T18:07:18;3.53;;;2.10;;
14619;SDS011;32125;48.518;9.050;2022-09-28T18:09:47;5.50;;;2.70;;
14619;SDS011;32125;48.518;9.050;2022-09-28T18:12:20;3.20;;;2.47;;
14619;SDS011;32125;48.518;9.050;2022-09-28T18:14:49;3.27;;;2.70;;
14619;SDS011;32125;48.518;9.050;2022-09-28T18:17:15;5.10;;;2.23;;
14619;SDS011;32125;48.518;9.050;2022-09-28T18:19:41;2.73;;;2.23;;
14619;SDS011;32125;48.518;9.050;2022-09-28T18:22:07;2.97;;;2.30;;
14619;SDS011;32125;48.518;9.050;2022-09-28T18:24:33;4.93;;;2.40;;
14619;SDS011;32125;48.518;9.050;2022-09-28T18:26:59;3.03;;;2.33;;
14619;SDS011;32125;48.518;9.050;2022-09-28T18:29:25;4.80;;;3.00;;
14619;SDS011;32125;48.518;9.050;2022-09-28T18:31:50;3.40;;;2.63;;
14619;SDS011;32125;48.518;9.050;2022-09-28T18:34:16;6.17;;;2.60;;
14619;SDS011;32125;48.518;9.050;2022-09-28T18:36:42;3.83;;;2.70;;
14619;SDS011;32125;48.518;9.050;2022-09-28T18:39:10;4.87;;;2.63;;
14619;SDS011;32125;48.518;9.050;2022-09-28T18:41:36;4.23;;;2.40;;
14619;SDS011;32125;48.518;9.050;2022-09-28T18:44:04;5.03;;;2.67;;
14619;SDS011;32125;48.518;9.050;2022-09-28T18:46:30;3.50;;;2.60;;
14619;SDS011;32125;48.518;9.050;2022-09-28T18:49:00;4.67;;;3.03;;
14619;SDS011;32125;48.518;9.050;2022-09-28T18:51:26;5.00;;;3.20;;
14619;SDS011;32125;48.518;9.050;2022-09-28T18:53:52;4.33;;;3.30;;